LIBN/LCC METAR and TAF weather

Enter ICAO airport designator
Station Type Date Time Source
LIBN METAR 2022/06/30 00:55 UTC NOAA

LIBN 300055Z VRB02KT CAVOK 26/26 Q1011


Station Type Date Time Source
LIBN Decoded METAR 2022/06/30 00:55 UTC NOAA

Lecce, Italy (LIBN) 40-14N 018-09E 61M
Jun 29, 2022 - 08:55 PM EDT / 2022.06.30 0055 UTC
Wind: Variable at 2 MPH (2 KT):0
Visibility: greater than 7 mile(s):0
Temperature: 78 F (26 C)
Dew Point: 78 F (26 C)
Relative Humidity: 100%
Pressure (altimeter): 29.85 in. Hg (1011 hPa)
ob: LIBN 300055Z VRB02KT CAVOK 26/26 Q1011
cycle: 1

Station Type Date Time Source
LIBN TAF 2022/06/03 12:39 UTC NOAA

TAF TAF LIBN 031100Z 0312/0324 36012KT CAVOK

Example: see airport list